This is the latest recevied weather packets stored in our database for station/object W6UA-13. If no packets are shown the sender has not sent any weather packets the latest 10 day(s).
| Time | Temp. | Humidity | Pressure | Rain* | Wind** | Luminosity | Snow |
|---|---|---|---|---|---|---|---|
| 1777363495 | 8.89° C | 85% | 1018.4 hPa | 0 mm | - | 0 W/m² | - |
| 1777362595 | 8.89° C | 84% | 1018.4 hPa | 0 mm | - | 0 W/m² | - |
| 1777361695 | 8.89° C | 84% | 1018.5 hPa | 0 mm | - | 0 W/m² | - |
| 1777360795 | 9.44° C | 84% | 1018.5 hPa | 0 mm | - | 0 W/m² | - |
| 1777359895 | 9.44° C | 84% | 1018.4 hPa | 0 mm | - | 0 W/m² | - |
| 1777358995 | 9.44° C | 84% | 1018.3 hPa | 0 mm | - | 0 W/m² | - |
| 1777358095 | 10° C | 83% | 1018.2 hPa | 0 mm | - | 0 W/m² | - |
| 1777357195 | 10.56° C | 83% | 1018.3 hPa | 0 mm | - | 0 W/m² | - |
| 1777356295 | 10.56° C | 82% | 1018.2 hPa | 0 mm | - | 0 W/m² | - |
| 1777354495 | 11.11° C | 81% | 1018.4 hPa | 0 mm | - | 0 W/m² | - |
| 1777353595 | 11.67° C | 81% | 1018.5 hPa | 0 mm | - | 0 W/m² | - |
| 1777352695 | 11.67° C | 80% | 1018.5 hPa | 0 mm | - | 0 W/m² | - |
| 1777351795 | 11.67° C | 79% | 1018.4 hPa | 0 mm | - | 0 W/m² | - |
| 1777350895 | 12.22° C | 79% | 1018.1 hPa | 0 mm | - | 0 W/m² | - |
| 1777349995 | 12.22° C | 78% | 1018 hPa | 0 mm | - | 0 W/m² | - |
| 1777349095 | 12.22° C | 76% | 1017.8 hPa | 0 mm | - | 0 W/m² | - |
| 1777348195 | 12.22° C | 74% | 1017.7 hPa | 0 mm | - | 0 W/m² | - |
| 1777347295 | 12.78° C | 73% | 1017.5 hPa | 0 mm | - | 0 W/m² | - |
| 1777345495 | 13.33° C | 69% | 1017.5 hPa | 0 mm | - | 0 W/m² | - |
| 1777344595 | 13.33° C | 68% | 1017.5 hPa | 0 mm | - | 0 W/m² | - |
| 1777340095 | 15.56° C | 57% | 1017.5 hPa | 0 mm | - | 158 W/m² | - |
| 1777338295 | 16.67° C | 53% | 1017.6 hPa | 0 mm | - | 200 W/m² | - |
| 1777337395 | 17.78° C | 51% | 1017.5 hPa | 0 mm | - | 295 W/m² | - |
| 1777312196 | 16.11° C | 63% | 1017 hPa | 0 mm | - | 800 W/m² | - |
| 1777311296 | 15.56° C | 65% | 1016.9 hPa | 0 mm | - | 172 W/m² | - |
* Rain latest hour (hover to see other rain measurements)
** Current wind speed in m/s (hover to see current wind gust speed)